Albuquerque (West), New Mexico
Current Conditions -  °F | °C
As of 10:35 PM on Sunday 21 Dec 2014 (Local Time) from KAEG Reporting Station
Clear Clear  
Wind Chill: 31°   Ceiling: Unl
Heat Index: 31°   Visibility: 10mi
Dew Point: 26°   Wind: 3mph
Humidity: 83%   Direction: 240°WSW
Pressure: 29.94"   Gusts: NA
Location:  35.15°N, 106.8°W
Report Text: KAEG 220535Z AUTO 24003KT 10SM CLR 00/M03 A2994 RMK AO2 T10051031
Loading
Personal Weather Stations






























Interactive Weather Map New forecast layout! Learn more

10-Day Weather Forecast

Advertisements
Track Severe Weather on mobile